EZY86M LFSB-EKCH
Flight info
| Callsign | EZY86M |
|---|---|
| Flight time | 1h 28m |
| Altitude | 37000 |
| Route | ELBEG Y715 HEUSE N851 TEDGO DCT HAREM DCT LOHRE DCT BERXO DCT MAKEL N851 GESKA Z711 MONAK |
| Aircraft | A320/M-SDE3FGHIRWY/LB1 |
Departure
| Time | 2026-04-22 18:53 |
|---|---|
| Airport | EuroAirport Basel–Mulhouse–Freiburg (LFSB) |
Arrival
| Time | 2026-04-22 20:21 |
|---|---|
| Airport | Copenhagen Kastrup Airport (EKCH) |
| Time | Latitude | Longitude | Altitude | Speed | Heading |
|---|---|---|---|---|---|
| 2026-04-22 18:21 | 47.59788 | 7.53249 | 900 ft | 0 kts | 65° |
| 2026-04-22 18:21 | 47.59787 | 7.53247 | 900 ft | 0 kts | 65° |
| 2026-04-22 18:45 | 47.59785 | 7.53241 | 900 ft | 2 kts | 63° |
| 2026-04-22 18:46 | 47.59775 | 7.53217 | 900 ft | 3 kts | 39° |
| 2026-04-22 18:46 | 47.59759 | 7.53204 | 900 ft | 3 kts | 0° |
| 2026-04-22 18:46 | 47.59744 | 7.53207 | 900 ft | 1 kts | 333° |
| 2026-04-22 18:46 | 47.59739 | 7.53210 | 900 ft | 0 kts | 333° |
| 2026-04-22 18:48 | 47.59740 | 7.53209 | 900 ft | 1 kts | 333° |
| 2026-04-22 18:49 | 47.59759 | 7.53194 | 900 ft | 6 kts | 325° |
| 2026-04-22 18:49 | 47.59762 | 7.53112 | 900 ft | 12 kts | 246° |
| 2026-04-22 18:49 | 47.59719 | 7.52971 | 900 ft | 18 kts | 243° |
| 2026-04-22 18:49 | 47.59668 | 7.52815 | 900 ft | 19 kts | 244° |
| 2026-04-22 18:50 | 47.59740 | 7.52695 | 900 ft | 21 kts | 334° |
| 2026-04-22 18:50 | 47.59891 | 7.52590 | 900 ft | 27 kts | 336° |
| 2026-04-22 18:50 | 47.60067 | 7.52468 | 900 ft | 29 kts | 335° |
| 2026-04-22 18:50 | 47.60253 | 7.52339 | 900 ft | 30 kts | 335° |
| 2026-04-22 18:51 | 47.60449 | 7.52202 | 900 ft | 32 kts | 335° |
| 2026-04-22 18:51 | 47.60653 | 7.52059 | 900 ft | 33 kts | 335° |
| 2026-04-22 18:51 | 47.60858 | 7.51916 | 900 ft | 33 kts | 334° |
| 2026-04-22 18:51 | 47.61063 | 7.51774 | 900 ft | 33 kts | 335° |
| 2026-04-22 18:52 | 47.61146 | 7.51620 | 900 ft | 19 kts | 241° |
| 2026-04-22 18:52 | 47.61091 | 7.51473 | 900 ft | 11 kts | 208° |
| 2026-04-22 18:52 | 47.61022 | 7.51505 | 900 ft | 14 kts | 154° |
| 2026-04-22 18:52 | 47.60763 | 7.51687 | 900 ft | 73 kts | 154° |
| 2026-04-22 18:53 | 47.60114 | 7.52139 | 900 ft | 130 kts | 154° |
| 2026-04-22 18:53 | 47.59159 | 7.52796 | 992 ft | 162 kts | 154° |
| 2026-04-22 18:53 | 47.58115 | 7.53461 | 1534 ft | 164 kts | 157° |
| 2026-04-22 18:53 | 47.57016 | 7.53820 | 2199 ft | 165 kts | 174° |
| 2026-04-22 18:54 | 47.55857 | 7.53570 | 2677 ft | 181 kts | 197° |
| 2026-04-22 18:54 | 47.54752 | 7.52439 | 2890 ft | 208 kts | 227° |
| 2026-04-22 18:54 | 47.54138 | 7.50416 | 3233 ft | 227 kts | 263° |
| 2026-04-22 18:54 | 47.54434 | 7.48120 | 3740 ft | 234 kts | 301° |
| 2026-04-22 18:55 | 47.55605 | 7.46468 | 4298 ft | 238 kts | 338° |
| 2026-04-22 18:55 | 47.57214 | 7.46013 | 4986 ft | 236 kts | 1° |
| 2026-04-22 18:55 | 47.58865 | 7.45996 | 5801 ft | 238 kts | 4° |
| 2026-04-22 18:55 | 47.60525 | 7.46022 | 6601 ft | 240 kts | 6° |
| 2026-04-22 18:56 | 47.62201 | 7.46076 | 7366 ft | 242 kts | 6° |
| 2026-04-22 18:56 | 47.63894 | 7.46138 | 8093 ft | 245 kts | 6° |
| 2026-04-22 18:56 | 47.65605 | 7.46226 | 8803 ft | 247 kts | 9° |
| 2026-04-22 18:56 | 47.67282 | 7.46930 | 9149 ft | 260 kts | 34° |
| 2026-04-22 18:57 | 47.68516 | 7.48893 | 9697 ft | 267 kts | 65° |
| 2026-04-22 18:57 | 47.68845 | 7.51590 | 10426 ft | 272 kts | 95° |
| 2026-04-22 18:57 | 47.68209 | 7.54361 | 10715 ft | 300 kts | 116° |
| 2026-04-22 18:57 | 47.67456 | 7.57371 | 10833 ft | 326 kts | 96° |
| 2026-04-22 18:58 | 47.67604 | 7.60787 | 11282 ft | 339 kts | 78° |
| 2026-04-22 18:58 | 47.68113 | 7.64258 | 11924 ft | 349 kts | 77° |
| 2026-04-22 18:58 | 47.68638 | 7.67806 | 12628 ft | 356 kts | 77° |
| 2026-04-22 18:58 | 47.69153 | 7.71428 | 13350 ft | 361 kts | 77° |
| 2026-04-22 18:59 | 47.69686 | 7.75095 | 14052 ft | 366 kts | 74° |
| 2026-04-22 18:59 | 47.70508 | 7.78690 | 14764 ft | 369 kts | 68° |
| 2026-04-22 18:59 | 47.71437 | 7.82263 | 15473 ft | 373 kts | 67° |
| 2026-04-22 18:59 | 47.72380 | 7.85873 | 16160 ft | 377 kts | 67° |
| 2026-04-22 19:00 | 47.73323 | 7.89524 | 16824 ft | 380 kts | 67° |
| 2026-04-22 19:00 | 47.74267 | 7.93211 | 17460 ft | 384 kts | 67° |
| 2026-04-22 19:00 | 47.75216 | 7.96940 | 18071 ft | 388 kts | 67° |
| 2026-04-22 19:00 | 47.76161 | 8.00670 | 18653 ft | 391 kts | 67° |
| 2026-04-22 19:01 | 47.77131 | 8.04509 | 19237 ft | 395 kts | 67° |
| 2026-04-22 19:01 | 47.78095 | 8.08348 | 19792 ft | 398 kts | 67° |
| 2026-04-22 19:01 | 47.79059 | 8.12222 | 20324 ft | 401 kts | 68° |
| 2026-04-22 19:01 | 47.80029 | 8.16126 | 20842 ft | 404 kts | 67° |
| 2026-04-22 19:02 | 47.81007 | 8.20062 | 21339 ft | 407 kts | 67° |
| 2026-04-22 19:02 | 47.81992 | 8.24034 | 21818 ft | 410 kts | 67° |
| 2026-04-22 19:02 | 47.82984 | 8.28030 | 22279 ft | 413 kts | 67° |
| 2026-04-22 19:02 | 47.83969 | 8.32007 | 22724 ft | 416 kts | 67° |
| 2026-04-22 19:03 | 47.84973 | 8.36059 | 23152 ft | 419 kts | 67° |
| 2026-04-22 19:03 | 47.85984 | 8.40147 | 23567 ft | 422 kts | 67° |
| 2026-04-22 19:03 | 47.87008 | 8.44316 | 23972 ft | 425 kts | 67° |
| 2026-04-22 19:03 | 47.88025 | 8.48459 | 24351 ft | 427 kts | 67° |
| 2026-04-22 19:04 | 47.89049 | 8.52633 | 24716 ft | 430 kts | 67° |
| 2026-04-22 19:04 | 47.90064 | 8.56778 | 25061 ft | 433 kts | 67° |
| 2026-04-22 19:04 | 47.91103 | 8.61011 | 25402 ft | 436 kts | 66° |
| 2026-04-22 19:04 | 47.92147 | 8.65267 | 25737 ft | 439 kts | 66° |
| 2026-04-22 19:05 | 47.93213 | 8.69614 | 26072 ft | 442 kts | 66° |
| 2026-04-22 19:05 | 47.94270 | 8.73932 | 26404 ft | 444 kts | 66° |
| 2026-04-22 19:05 | 47.95317 | 8.78214 | 26740 ft | 447 kts | 66° |
| 2026-04-22 19:05 | 47.96384 | 8.82580 | 27065 ft | 449 kts | 66° |
| 2026-04-22 19:06 | 47.97458 | 8.86971 | 27384 ft | 452 kts | 66° |
| 2026-04-22 19:06 | 47.98537 | 8.91393 | 27698 ft | 454 kts | 66° |
| 2026-04-22 19:06 | 47.99617 | 8.95837 | 28010 ft | 457 kts | 66° |
| 2026-04-22 19:07 | 48.01768 | 9.04787 | 28782 ft | 458 kts | 66° |
| 2026-04-22 19:07 | 48.03007 | 9.09149 | 29074 ft | 456 kts | 57° |
| 2026-04-22 19:07 | 48.04932 | 9.12860 | 29300 ft | 451 kts | 40° |
| 2026-04-22 19:07 | 48.07467 | 9.15558 | 29593 ft | 446 kts | 24° |
| 2026-04-22 19:08 | 48.10382 | 9.17023 | 29948 ft | 441 kts | 8° |
| 2026-04-22 19:08 | 48.13410 | 9.17622 | 30413 ft | 437 kts | 5° |
| 2026-04-22 19:08 | 48.16422 | 9.18140 | 30860 ft | 435 kts | 5° |
| 2026-04-22 19:08 | 48.19425 | 9.18652 | 31274 ft | 433 kts | 5° |
| 2026-04-22 19:09 | 48.22416 | 9.19161 | 31657 ft | 432 kts | 5° |
| 2026-04-22 19:09 | 48.25403 | 9.19669 | 32025 ft | 432 kts | 5° |
| 2026-04-22 19:09 | 48.27378 | 9.20004 | 32262 ft | 431 kts | 5° |
| 2026-04-22 19:09 | 48.31360 | 9.20679 | 32726 ft | 430 kts | 5° |
| 2026-04-22 19:10 | 48.34331 | 9.21183 | 33059 ft | 430 kts | 5° |
| 2026-04-22 19:10 | 48.37300 | 9.21685 | 33373 ft | 429 kts | 6° |
| 2026-04-22 19:10 | 48.40267 | 9.22186 | 33670 ft | 429 kts | 6° |
| 2026-04-22 19:10 | 48.43238 | 9.22688 | 33965 ft | 429 kts | 6° |
| 2026-04-22 19:11 | 48.46205 | 9.23196 | 34257 ft | 429 kts | 6° |
| 2026-04-22 19:11 | 48.49168 | 9.23709 | 34540 ft | 429 kts | 6° |
| 2026-04-22 19:11 | 48.52132 | 9.24222 | 34817 ft | 429 kts | 6° |
| 2026-04-22 19:11 | 48.55094 | 9.24734 | 35086 ft | 429 kts | 6° |
| 2026-04-22 19:12 | 48.58030 | 9.25242 | 35347 ft | 429 kts | 6° |
| 2026-04-22 19:12 | 48.61022 | 9.25760 | 35607 ft | 428 kts | 6° |
| 2026-04-22 19:12 | 48.63985 | 9.26244 | 35853 ft | 428 kts | 5° |
| 2026-04-22 19:12 | 48.66950 | 9.26699 | 36100 ft | 428 kts | 5° |
| 2026-04-22 19:13 | 48.69918 | 9.27150 | 36238 ft | 429 kts | 5° |
| 2026-04-22 19:13 | 48.75842 | 9.28051 | 36285 ft | 426 kts | 5° |
| 2026-04-22 19:14 | 48.81690 | 9.28943 | 36290 ft | 425 kts | 5° |
| 2026-04-22 19:14 | 48.87578 | 9.29844 | 36294 ft | 425 kts | 5° |
| 2026-04-22 19:15 | 48.92511 | 9.30600 | 36297 ft | 425 kts | 5° |
| 2026-04-22 19:15 | 48.99364 | 9.31653 | 36301 ft | 427 kts | 6° |
| 2026-04-22 19:16 | 49.05266 | 9.32562 | 36305 ft | 426 kts | 6° |
| 2026-04-22 19:16 | 49.11164 | 9.33474 | 36308 ft | 426 kts | 6° |
| 2026-04-22 19:17 | 49.17068 | 9.34388 | 36312 ft | 426 kts | 6° |
| 2026-04-22 19:17 | 49.22963 | 9.35303 | 36313 ft | 426 kts | 6° |
| 2026-04-22 19:18 | 49.28864 | 9.36221 | 36314 ft | 426 kts | 6° |
| 2026-04-22 19:18 | 49.34766 | 9.37142 | 36314 ft | 426 kts | 6° |
| 2026-04-22 19:19 | 49.40668 | 9.38066 | 36315 ft | 426 kts | 6° |
| 2026-04-22 19:19 | 49.46570 | 9.38991 | 36316 ft | 427 kts | 6° |
| 2026-04-22 19:20 | 49.52479 | 9.39919 | 36313 ft | 427 kts | 6° |
| 2026-04-22 19:20 | 49.58382 | 9.40850 | 36319 ft | 427 kts | 6° |
| 2026-04-22 19:21 | 49.64294 | 9.41789 | 36319 ft | 427 kts | 7° |
| 2026-04-22 19:21 | 49.70203 | 9.42742 | 36320 ft | 427 kts | 7° |
| 2026-04-22 19:22 | 49.76115 | 9.43692 | 36320 ft | 427 kts | 7° |
| 2026-04-22 19:22 | 49.82028 | 9.44643 | 36320 ft | 427 kts | 7° |
| 2026-04-22 19:23 | 49.87944 | 9.45594 | 36321 ft | 427 kts | 7° |
| 2026-04-22 19:23 | 49.93858 | 9.46545 | 36321 ft | 428 kts | 7° |
| 2026-04-22 19:24 | 49.99777 | 9.47499 | 36322 ft | 427 kts | 7° |
| 2026-04-22 19:24 | 50.05695 | 9.48445 | 36324 ft | 428 kts | 7° |
| 2026-04-22 19:25 | 50.11538 | 9.50096 | 36328 ft | 426 kts | 13° |
| 2026-04-22 19:25 | 50.16353 | 9.51747 | 36329 ft | 426 kts | 13° |
| 2026-04-22 19:26 | 50.22149 | 9.53725 | 36330 ft | 426 kts | 13° |
| 2026-04-22 19:26 | 50.27951 | 9.55693 | 36332 ft | 427 kts | 13° |
| 2026-04-22 19:27 | 50.33752 | 9.57657 | 36334 ft | 427 kts | 13° |
| 2026-04-22 19:27 | 50.39552 | 9.59619 | 36336 ft | 427 kts | 13° |
| 2026-04-22 19:28 | 50.45357 | 9.61582 | 36338 ft | 427 kts | 13° |
| 2026-04-22 19:28 | 50.51159 | 9.63548 | 36340 ft | 427 kts | 13° |
| 2026-04-22 19:29 | 50.56964 | 9.65519 | 36342 ft | 427 kts | 13° |
| 2026-04-22 19:29 | 50.62770 | 9.67493 | 36344 ft | 427 kts | 13° |
| 2026-04-22 19:30 | 50.67597 | 9.69138 | 36345 ft | 427 kts | 13° |
| 2026-04-22 19:30 | 50.74382 | 9.71456 | 36347 ft | 427 kts | 14° |
| 2026-04-22 19:31 | 50.80196 | 9.73447 | 36347 ft | 427 kts | 14° |
| 2026-04-22 19:31 | 50.86006 | 9.75441 | 36348 ft | 428 kts | 14° |
| 2026-04-22 19:32 | 50.91782 | 9.77428 | 36349 ft | 428 kts | 14° |
| 2026-04-22 19:32 | 50.97599 | 9.79435 | 36349 ft | 428 kts | 14° |
| 2026-04-22 19:33 | 51.03417 | 9.81447 | 36350 ft | 428 kts | 14° |
| 2026-04-22 19:33 | 51.09229 | 9.83462 | 36370 ft | 428 kts | 14° |
| 2026-04-22 19:34 | 51.15049 | 9.85485 | 36374 ft | 428 kts | 14° |
| 2026-04-22 19:34 | 51.20873 | 9.87515 | 36375 ft | 428 kts | 14° |
| 2026-04-22 19:35 | 51.26561 | 9.90243 | 36376 ft | 427 kts | 22° |
| 2026-04-22 19:35 | 51.32153 | 9.93464 | 36375 ft | 426 kts | 21° |
| 2026-04-22 19:36 | 51.37754 | 9.96585 | 36374 ft | 427 kts | 21° |
| 2026-04-22 19:36 | 51.43370 | 9.99701 | 36374 ft | 427 kts | 21° |
| 2026-04-22 19:37 | 51.48987 | 10.02818 | 36564 ft | 428 kts | 21° |
| 2026-04-22 19:37 | 51.51804 | 10.04387 | 36783 ft | 428 kts | 21° |
| 2026-04-22 19:37 | 51.54616 | 10.05955 | 37008 ft | 428 kts | 21° |
| 2026-04-22 19:37 | 51.57422 | 10.07524 | 37272 ft | 427 kts | 21° |
| 2026-04-22 19:38 | 51.60231 | 10.09094 | 37345 ft | 427 kts | 21° |
| 2026-04-22 19:38 | 51.65826 | 10.12225 | 37368 ft | 425 kts | 21° |
| 2026-04-22 19:39 | 51.71405 | 10.15355 | 37369 ft | 425 kts | 21° |
| 2026-04-22 19:39 | 51.76988 | 10.18496 | 37367 ft | 425 kts | 21° |
| 2026-04-22 19:40 | 51.82567 | 10.21643 | 37365 ft | 425 kts | 21° |
| 2026-04-22 19:40 | 51.88106 | 10.24776 | 37363 ft | 425 kts | 21° |
| 2026-04-22 19:41 | 51.93687 | 10.27940 | 37358 ft | 425 kts | 21° |
| 2026-04-22 19:41 | 51.99261 | 10.31110 | 37356 ft | 425 kts | 21° |
| 2026-04-22 19:42 | 52.04841 | 10.34289 | 37355 ft | 426 kts | 22° |
| 2026-04-22 19:42 | 52.10427 | 10.37480 | 37353 ft | 425 kts | 22° |
| 2026-04-22 19:43 | 52.18790 | 10.42278 | 37351 ft | 424 kts | 22° |
| 2026-04-22 19:43 | 52.24358 | 10.45483 | 37349 ft | 425 kts | 22° |
| 2026-04-22 19:44 | 52.29935 | 10.48703 | 37348 ft | 425 kts | 22° |
| 2026-04-22 19:44 | 52.35508 | 10.51925 | 37347 ft | 425 kts | 22° |
| 2026-04-22 19:45 | 52.41029 | 10.55130 | 37348 ft | 425 kts | 22° |
| 2026-04-22 19:45 | 52.46601 | 10.58370 | 37350 ft | 425 kts | 22° |
| 2026-04-22 19:46 | 52.52164 | 10.61615 | 37352 ft | 424 kts | 23° |
| 2026-04-22 19:46 | 52.57736 | 10.64874 | 37347 ft | 424 kts | 23° |
| 2026-04-22 19:47 | 52.63290 | 10.68132 | 37347 ft | 424 kts | 23° |
| 2026-04-22 19:47 | 52.68853 | 10.71404 | 37347 ft | 424 kts | 23° |
| 2026-04-22 19:48 | 52.74417 | 10.74685 | 37345 ft | 424 kts | 24° |
| 2026-04-22 19:48 | 52.79970 | 10.77968 | 37345 ft | 424 kts | 24° |
| 2026-04-22 19:49 | 52.85526 | 10.81265 | 37345 ft | 424 kts | 24° |
| 2026-04-22 19:49 | 52.91078 | 10.84565 | 37343 ft | 424 kts | 24° |
| 2026-04-22 19:50 | 52.96631 | 10.87875 | 37342 ft | 424 kts | 24° |
| 2026-04-22 19:50 | 53.02176 | 10.91191 | 37342 ft | 424 kts | 24° |
| 2026-04-22 19:51 | 53.07717 | 10.94512 | 37341 ft | 422 kts | 24° |
| 2026-04-22 19:51 | 53.13215 | 10.97818 | 37341 ft | 424 kts | 24° |
| 2026-04-22 19:52 | 53.18753 | 11.01156 | 37339 ft | 423 kts | 25° |
| 2026-04-22 19:52 | 53.24284 | 11.04500 | 37337 ft | 422 kts | 25° |
| 2026-04-22 19:53 | 53.29811 | 11.07851 | 37338 ft | 423 kts | 25° |
| 2026-04-22 19:53 | 53.35337 | 11.11209 | 37339 ft | 422 kts | 25° |
| 2026-04-22 19:54 | 53.40863 | 11.14577 | 37334 ft | 423 kts | 25° |
| 2026-04-22 19:54 | 53.46385 | 11.17951 | 37336 ft | 422 kts | 25° |
| 2026-04-22 19:55 | 53.51889 | 11.21326 | 37336 ft | 421 kts | 25° |
| 2026-04-22 19:55 | 53.57392 | 11.24709 | 37334 ft | 422 kts | 25° |
| 2026-04-22 19:56 | 53.62894 | 11.28098 | 37336 ft | 421 kts | 25° |
| 2026-04-22 19:56 | 53.68388 | 11.31494 | 37338 ft | 421 kts | 25° |
| 2026-04-22 19:57 | 53.73890 | 11.34903 | 37336 ft | 420 kts | 26° |
| 2026-04-22 19:57 | 53.79373 | 11.38314 | 37335 ft | 420 kts | 26° |
| 2026-04-22 19:58 | 53.84862 | 11.41732 | 37017 ft | 421 kts | 26° |
| 2026-04-22 19:58 | 53.87611 | 11.43441 | 36765 ft | 417 kts | 26° |
| 2026-04-22 19:58 | 53.90330 | 11.45141 | 36515 ft | 416 kts | 26° |
| 2026-04-22 19:59 | 53.93044 | 11.46845 | 36265 ft | 416 kts | 27° |
| 2026-04-22 20:00 | 54.09287 | 11.57068 | 34766 ft | 415 kts | 28° |
| 2026-04-22 20:00 | 54.11994 | 11.58781 | 34516 ft | 415 kts | 28° |
| 2026-04-22 20:01 | 54.14702 | 11.60495 | 34051 ft | 414 kts | 28° |
| 2026-04-22 20:01 | 54.17392 | 11.62185 | 33380 ft | 413 kts | 28° |
| 2026-04-22 20:01 | 54.20147 | 11.63798 | 32260 ft | 424 kts | 26° |
| 2026-04-22 20:01 | 54.22965 | 11.65407 | 31194 ft | 431 kts | 26° |
| 2026-04-22 20:02 | 54.25801 | 11.67022 | 29932 ft | 430 kts | 25° |
| 2026-04-22 20:02 | 54.28640 | 11.68647 | 28594 ft | 430 kts | 24° |
| 2026-04-22 20:02 | 54.31470 | 11.70275 | 27342 ft | 428 kts | 24° |
| 2026-04-22 20:02 | 54.34281 | 11.71893 | 26141 ft | 424 kts | 22° |
| 2026-04-22 20:03 | 54.37063 | 11.73495 | 24925 ft | 420 kts | 21° |
| 2026-04-22 20:03 | 54.39818 | 11.75085 | 23721 ft | 416 kts | 21° |
| 2026-04-22 20:03 | 54.42548 | 11.76653 | 22581 ft | 411 kts | 20° |
| 2026-04-22 20:03 | 54.45238 | 11.78183 | 21514 ft | 404 kts | 19° |
| 2026-04-22 20:04 | 54.47872 | 11.79677 | 20760 ft | 391 kts | 19° |
| 2026-04-22 20:04 | 54.50396 | 11.81108 | 20242 ft | 374 kts | 19° |
| 2026-04-22 20:04 | 54.52848 | 11.82503 | 19750 ft | 369 kts | 19° |
| 2026-04-22 20:04 | 54.55266 | 11.83888 | 19257 ft | 363 kts | 19° |
| 2026-04-22 20:05 | 54.57649 | 11.85258 | 18776 ft | 359 kts | 19° |
| 2026-04-22 20:05 | 54.60010 | 11.86622 | 18297 ft | 356 kts | 19° |
| 2026-04-22 20:05 | 54.62353 | 11.87978 | 17816 ft | 354 kts | 19° |
| 2026-04-22 20:05 | 54.64676 | 11.89327 | 17338 ft | 351 kts | 19° |
| 2026-04-22 20:06 | 54.66982 | 11.90667 | 16864 ft | 348 kts | 19° |
| 2026-04-22 20:06 | 54.69266 | 11.91997 | 16405 ft | 345 kts | 19° |
| 2026-04-22 20:06 | 54.71533 | 11.93320 | 15940 ft | 343 kts | 19° |
| 2026-04-22 20:06 | 54.73782 | 11.94634 | 15491 ft | 340 kts | 19° |
| 2026-04-22 20:07 | 54.76017 | 11.95943 | 15031 ft | 338 kts | 19° |
| 2026-04-22 20:07 | 54.78233 | 11.97241 | 14568 ft | 335 kts | 19° |
| 2026-04-22 20:07 | 54.80428 | 11.98529 | 14129 ft | 333 kts | 18° |
| 2026-04-22 20:07 | 54.82615 | 11.99815 | 13681 ft | 330 kts | 18° |
| 2026-04-22 20:08 | 54.84778 | 12.01091 | 13240 ft | 328 kts | 18° |
| 2026-04-22 20:08 | 54.86925 | 12.02356 | 12800 ft | 324 kts | 18° |
| 2026-04-22 20:08 | 54.89052 | 12.03609 | 12369 ft | 322 kts | 18° |
| 2026-04-22 20:08 | 54.91162 | 12.04854 | 11935 ft | 319 kts | 18° |
| 2026-04-22 20:09 | 54.93260 | 12.06093 | 11506 ft | 318 kts | 18° |
| 2026-04-22 20:09 | 54.95343 | 12.07327 | 11185 ft | 311 kts | 17° |
| 2026-04-22 20:09 | 54.97331 | 12.08506 | 11107 ft | 293 kts | 17° |
| 2026-04-22 20:09 | 54.99206 | 12.09618 | 10985 ft | 278 kts | 17° |
| 2026-04-22 20:10 | 55.01003 | 12.10685 | 10846 ft | 270 kts | 17° |
| 2026-04-22 20:10 | 55.02754 | 12.11723 | 10716 ft | 269 kts | 17° |
| 2026-04-22 20:10 | 55.04552 | 12.12789 | 10498 ft | 270 kts | 17° |
| 2026-04-22 20:10 | 55.06324 | 12.13844 | 10137 ft | 268 kts | 17° |
| 2026-04-22 20:11 | 55.08059 | 12.14877 | 9836 ft | 267 kts | 16° |
| 2026-04-22 20:11 | 55.09817 | 12.15924 | 9492 ft | 266 kts | 16° |
| 2026-04-22 20:11 | 55.11567 | 12.16968 | 9168 ft | 266 kts | 16° |
| 2026-04-22 20:11 | 55.13316 | 12.18014 | 8819 ft | 265 kts | 16° |
| 2026-04-22 20:12 | 55.15056 | 12.19054 | 8475 ft | 263 kts | 16° |
| 2026-04-22 20:12 | 55.16784 | 12.20086 | 8147 ft | 262 kts | 15° |
| 2026-04-22 20:12 | 55.17951 | 12.20783 | 7918 ft | 261 kts | 15° |
| 2026-04-22 20:12 | 55.20220 | 12.22142 | 7489 ft | 260 kts | 15° |
| 2026-04-22 20:13 | 55.21926 | 12.23165 | 7149 ft | 259 kts | 15° |
| 2026-04-22 20:13 | 55.23069 | 12.23851 | 6939 ft | 258 kts | 15° |
| 2026-04-22 20:13 | 55.25313 | 12.25198 | 6498 ft | 256 kts | 15° |
| 2026-04-22 20:13 | 55.26992 | 12.26208 | 6219 ft | 253 kts | 15° |
| 2026-04-22 20:14 | 55.28087 | 12.26870 | 6157 ft | 240 kts | 15° |
| 2026-04-22 20:14 | 55.29603 | 12.27787 | 6032 ft | 228 kts | 15° |
| 2026-04-22 20:14 | 55.31092 | 12.28684 | 5934 ft | 225 kts | 15° |
| 2026-04-22 20:14 | 55.32586 | 12.29583 | 5832 ft | 224 kts | 14° |
| 2026-04-22 20:15 | 55.34041 | 12.30460 | 5622 ft | 224 kts | 14° |
| 2026-04-22 20:15 | 55.35530 | 12.31358 | 5271 ft | 227 kts | 14° |
| 2026-04-22 20:15 | 55.37018 | 12.32258 | 4954 ft | 226 kts | 14° |
| 2026-04-22 20:15 | 55.38504 | 12.33159 | 4675 ft | 226 kts | 14° |
| 2026-04-22 20:16 | 55.39986 | 12.34056 | 4384 ft | 225 kts | 14° |
| 2026-04-22 20:16 | 55.41463 | 12.34951 | 4114 ft | 224 kts | 14° |
| 2026-04-22 20:16 | 55.42906 | 12.35994 | 3860 ft | 223 kts | 22° |
| 2026-04-22 20:16 | 55.44160 | 12.37434 | 3777 ft | 208 kts | 32° |
| 2026-04-22 20:17 | 55.45244 | 12.39001 | 3594 ft | 197 kts | 33° |
| 2026-04-22 20:17 | 55.46281 | 12.40524 | 3345 ft | 191 kts | 33° |
| 2026-04-22 20:17 | 55.47276 | 12.42014 | 3101 ft | 186 kts | 33° |
| 2026-04-22 20:17 | 55.48257 | 12.43496 | 2867 ft | 185 kts | 33° |
| 2026-04-22 20:18 | 55.49231 | 12.44978 | 2631 ft | 185 kts | 34° |
| 2026-04-22 20:18 | 55.50203 | 12.46462 | 2394 ft | 186 kts | 34° |
| 2026-04-22 20:18 | 55.51195 | 12.47981 | 2156 ft | 190 kts | 35° |
| 2026-04-22 20:18 | 55.52194 | 12.49517 | 1911 ft | 189 kts | 35° |
| 2026-04-22 20:19 | 55.53149 | 12.50994 | 1670 ft | 175 kts | 35° |
| 2026-04-22 20:19 | 55.54013 | 12.52330 | 1425 ft | 155 kts | 35° |
| 2026-04-22 20:19 | 55.54804 | 12.53533 | 1214 ft | 149 kts | 37° |
| 2026-04-22 20:19 | 55.55571 | 12.54721 | 1025 ft | 145 kts | 37° |
| 2026-04-22 20:20 | 55.56333 | 12.55897 | 843 ft | 145 kts | 37° |
| 2026-04-22 20:20 | 55.57092 | 12.57068 | 657 ft | 147 kts | 37° |
| 2026-04-22 20:20 | 55.57856 | 12.58249 | 459 ft | 143 kts | 37° |
| 2026-04-22 20:20 | 55.58612 | 12.59413 | 282 ft | 146 kts | 37° |
| 2026-04-22 20:21 | 55.59367 | 12.60587 | 80 ft | 143 kts | 38° |
| 2026-04-22 20:21 | 55.60060 | 12.61655 | 32 ft | 112 kts | 39° |
| 2026-04-22 20:21 | 55.60511 | 12.62343 | 32 ft | 59 kts | 40° |
| 2026-04-22 20:21 | 55.60717 | 12.62666 | 32 ft | 33 kts | 40° |
| 2026-04-22 20:22 | 55.60916 | 12.62845 | 32 ft | 33 kts | 13° |
| 2026-04-22 20:22 | 55.61133 | 12.62952 | 32 ft | 33 kts | 34° |
| 2026-04-22 20:22 | 55.61308 | 12.63207 | 32 ft | 33 kts | 41° |
| 2026-04-22 20:22 | 55.61477 | 12.63474 | 32 ft | 33 kts | 41° |
| 2026-04-22 20:23 | 55.61650 | 12.63734 | 32 ft | 33 kts | 41° |
| 2026-04-22 20:23 | 55.61824 | 12.63989 | 32 ft | 33 kts | 38° |
| 2026-04-22 20:23 | 55.62017 | 12.64196 | 32 ft | 33 kts | 24° |
| 2026-04-22 20:23 | 55.62224 | 12.64360 | 32 ft | 33 kts | 27° |
| 2026-04-22 20:24 | 55.62415 | 12.64465 | 32 ft | 22 kts | 14° |
| 2026-04-22 20:24 | 55.62452 | 12.64589 | 32 ft | 15 kts | 124° |
| 2026-04-22 20:24 | 55.62392 | 12.64745 | 32 ft | 16 kts | 123° |
| 2026-04-22 20:24 | 55.62331 | 12.64914 | 32 ft | 17 kts | 122° |
| 2026-04-22 20:25 | 55.62281 | 12.65108 | 32 ft | 18 kts | 90° |
| 2026-04-22 20:25 | 55.62377 | 12.65194 | 32 ft | 19 kts | 356° |
| 2026-04-22 20:25 | 55.62471 | 12.65253 | 32 ft | 14 kts | 93° |
| 2026-04-22 20:25 | 55.62432 | 12.65410 | 32 ft | 12 kts | 75° |
| 2026-04-22 20:26 | 55.62475 | 12.65446 | 32 ft | 5 kts | 359° |
| 2026-04-22 20:26 | 55.62492 | 12.65456 | 32 ft | 1 kts | 23° |
| 2026-04-22 20:26 | 55.62493 | 12.65457 | 32 ft | 0 kts | 23° |